Accueil
METAR-TAF:

METAR-TAF

Aéroports :

Base aérienne 125 Istres-Le Tubé

Istres, France

latitude: 43-31N, longitude: 004-56E, altitude: 23 m

Observation

Le bulletin a été fait il y a 20 minutes, à 19:00 UTC
Vent 7 kt de sud/sud-est
Température 27°C
Humidité 48%
Pression 1018 hPa
Visibilité 10 km ou plus
pas de nuages en-dessous de 1500 mètres et pas de cumulonimbus.

METAR: LFMI 201900Z AUTO 16007KT CAVOK 27/15 Q1018 NOSIG

Heure: 21:20 (19:20 UTC)

Prévision

Le bulletin a été fait il y a 5 heures et 20 minutes, à 14:00 UTC
Prévision valable du 20 à 15 UTC au 21 à 15 UTC
Vent 12 kt de sud
Visibilité 10 km ou plus
pas de nuages en-dessous de 1500 mètres et pas de cumulonimbus.
Evoluant progressivement
du 20 à 17 UTC au 20 à 19 UTC
Vent 5 kt de direction variable
Evoluant progressivement
du 21 à 09 UTC au 21 à 10 UTC
Vent 13 kt de ouest

TAF: LFMI 201400Z 2015/2115 18012KT CAVOK BECMG 2017/2019 VRB05KT BECMG 2109/2110 26013KT

Observations et prévisions météorologiques de plus de 4000 aéroports (messages METAR et TAF).

Les stations disponibles sont représentées par des disques jaunes et rouges sur la carte.

Passer la souris dessus pour voir le nom de la station.

Cliquer dessus pour voir les observations et prévisions météorologiques.

Pour changer de carte: cliquez sur les boutons verts avec une croix noire pour zoomer, sur le bouton vert avec un tiret pour effectuer un zoom arrière, ou sur les flèches vertes pour les cartes adjacentes.


METAR-TAF: